メインページ
METAR-TAF:

METAR-TAF

空港 :

ノヴォシビルスク, ロシア

トルマチョーヴォ空港

緯度: 55-01N, 経度: 082-38E, 海抜: 111m

現時点の気象観測

当レポートは34分前の19:00(UTC)に作成
変向風 2kt
気温 -22°C
湿度 76%
気圧 1031 hPa
視程: 5000m

METAR: UNNT 251900Z VRB01MPS 5000 BR NSC M22/M25 Q1031 R25/810165 R16/810165 NOSIG RMK QFE763/1018

時間: 02:34 (19:34 UTC)

予報

当レポートは2時間34分前の17:00(UTC)に作成
予報は25日の 18時(UTC)から 26日の 18時(UTC)まで有効
西の風 6kt
視程: 3100m
高度1100ftの千切れ雲あり
煙, 靄
25日の 18時(UTC)から 26日の 06時(UTC)まで一時的に
視程: 0500m
高度200ftの千切れ雲あり
高度1100ftの曇り
着氷性の霧
26日の 0600時(UTC)から
の風 6kt
視程10km以上
高度1600ftの雲は散在している

TAF: UNNT 251700Z 2518/2618 26003MPS 3100 FU BR BKN011 TEMPO 2518/2606 0500 FZFG BKN002 OVC011 FM260600 01003MPS 9999 SCT016

4,000以上の空港の気象観測と天気予報(METAR報とTAF報)

利用可能な観測所は地図上に黄色い丸と赤い丸で示す。

丸の上にカーソルを重ねると観測所名を参照できる。

次にクリックすると気象観測と天気予報を参照できる。

マップの切り替え:黒色「×」印の緑ボタンをクリックして拡大、「-」印の緑ボタンをクリックして縮小、緑色の三角印をクリックして隣りの地図に切り替え


METAR-TAF: